createdAt,value
2018-04-25T00:01:53.440Z,93.00
2018-04-25T00:04:25.412Z,92.80
2018-04-25T00:06:52.880Z,92.80
2018-04-25T00:09:20.360Z,93.20
2018-04-25T00:11:49.623Z,92.60
2018-04-25T00:14:17.976Z,92.80
2018-04-25T00:16:45.447Z,93.30
2018-04-25T00:19:13.915Z,93.10
2018-04-25T00:21:41.389Z,93.60
2018-04-25T00:24:09.104Z,93.60
2018-04-25T00:26:41.483Z,93.60
2018-04-25T00:29:09.733Z,93.20
2018-04-25T00:31:37.185Z,93.10
2018-04-25T00:34:04.668Z,93.00
2018-04-25T00:36:34.061Z,93.30
2018-04-25T00:39:07.867Z,93.30
2018-04-25T00:41:35.310Z,93.20
2018-04-25T00:44:04.669Z,92.90
2018-04-25T00:46:33.145Z,93.80
2018-04-25T00:49:01.363Z,93.70
2018-04-25T00:51:28.822Z,93.70
2018-04-25T00:53:57.204Z,93.90
2018-04-25T00:56:24.681Z,93.90
2018-04-25T00:58:54.837Z,93.70
2018-04-25T01:01:22.312Z,93.60
2018-04-25T01:03:51.693Z,94.00
2018-04-25T01:06:19.947Z,94.10
2018-04-25T01:08:53.116Z,94.60
2018-04-25T01:11:21.479Z,94.60
2018-04-25T01:13:50.871Z,94.40
2018-04-25T01:16:18.324Z,94.20
2018-04-25T01:18:46.794Z,93.90
2018-04-25T01:21:15.205Z,94.20
2018-04-25T01:23:42.673Z,94.40
2018-04-25T01:26:11.972Z,94.60
2018-04-25T01:28:40.437Z,94.20
2018-04-25T01:31:10.514Z,94.80
2018-04-25T01:33:42.815Z,94.80
2018-04-25T01:36:20.718Z,94.70
2018-04-25T01:38:49.206Z,94.80
2018-04-25T01:41:16.670Z,94.30
2018-04-25T01:43:50.574Z,94.90
2018-04-25T01:46:19.994Z,94.90
2018-04-25T01:51:58.782Z,95.10
2018-04-25T01:54:38.191Z,94.80
2018-04-25T01:57:18.059Z,95.00
2018-04-25T01:59:57.434Z,95.00
2018-04-25T02:02:24.380Z,95.10
2018-04-25T02:04:52.626Z,95.20
2018-04-25T02:07:20.057Z,95.20
2018-04-25T02:09:47.635Z,95.30
2018-04-25T02:12:15.084Z,95.20
2018-04-25T02:14:42.529Z,95.50
2018-04-25T02:17:09.968Z,95.50
2018-04-25T02:19:38.308Z,95.70
2018-04-25T02:22:05.764Z,95.60
2018-04-25T02:24:33.350Z,95.90
2018-04-25T02:27:00.787Z,95.80
2018-04-25T02:29:28.218Z,96.20
2018-04-25T02:31:55.645Z,96.30
2018-04-25T02:34:23.422Z,97.40
2018-04-25T02:36:50.788Z,97.40
2018-04-25T02:39:18.246Z,96.60
2018-04-25T02:41:45.697Z,96.70
2018-04-25T02:44:13.139Z,96.80
2018-04-25T02:46:40.574Z,96.60
2018-04-25T02:49:08.848Z,96.80
2018-04-25T02:51:36.289Z,96.80
2018-04-25T02:54:05.218Z,96.70
2018-04-25T02:56:32.662Z,96.60
2018-04-25T02:59:00.997Z,96.40
2018-04-25T03:01:28.303Z,96.40
2018-04-25T03:03:55.798Z,96.30
2018-04-25T03:06:23.236Z,96.20
2018-04-25T03:08:50.675Z,95.90
2018-04-25T03:11:18.852Z,95.30
2018-04-25T03:13:46.282Z,95.30
2018-04-25T03:16:13.733Z,95.40
2018-04-25T03:18:41.930Z,95.40
2018-04-25T03:21:10.146Z,95.30
2018-04-25T03:23:38.018Z,95.30
2018-04-25T03:26:05.454Z,94.90
2018-04-25T03:28:33.751Z,95.00
2018-04-25T03:31:01.308Z,95.00
2018-04-25T03:33:28.732Z,94.90
2018-04-25T03:35:56.167Z,95.10
2018-04-25T03:38:24.388Z,94.90
2018-04-25T03:40:51.827Z,94.90
2018-04-25T03:43:19.262Z,94.90
2018-04-25T03:45:47.511Z,94.80
2018-04-25T03:48:14.948Z,94.80
2018-04-25T03:50:42.402Z,94.50
2018-04-25T03:53:09.830Z,94.70
2018-04-25T03:55:37.267Z,94.90
2018-04-25T03:58:05.815Z,94.50
2018-04-25T04:00:33.267Z,94.50
2018-04-25T04:03:00.713Z,94.30
2018-04-25T04:05:28.174Z,94.30
2018-04-25T04:07:55.611Z,94.60
2018-04-25T04:10:23.065Z,94.90
2018-04-25T04:12:50.509Z,94.60
2018-04-25T04:15:17.974Z,94.50
2018-04-25T04:17:45.506Z,94.50
2018-04-25T04:20:13.026Z,94.40
2018-04-25T04:22:40.474Z,94.30
2018-04-25T04:25:08.127Z,94.70
2018-04-25T04:27:36.334Z,94.70
2018-04-25T04:30:04.583Z,94.70
2018-04-25T04:32:32.046Z,94.80
2018-04-25T04:34:59.495Z,94.70
2018-04-25T04:37:26.933Z,94.40
2018-04-25T04:39:54.405Z,94.50
2018-04-25T04:42:21.870Z,94.70
2018-04-25T04:44:49.445Z,94.40
2018-04-25T04:47:16.935Z,94.40
2018-04-25T04:49:45.145Z,94.20
2018-04-25T04:52:12.587Z,94.10
2018-04-25T04:54:41.094Z,94.50
2018-04-25T04:57:08.551Z,94.50
2018-04-25T04:59:36.004Z,94.10
2018-04-25T05:02:03.458Z,94.00
2018-04-25T05:04:30.890Z,94.10
2018-04-25T05:06:59.619Z,93.60
2018-04-25T05:09:27.090Z,93.60
2018-04-25T05:11:54.521Z,94.00
2018-04-25T05:14:22.005Z,93.90
2018-04-25T05:16:49.435Z,93.90
2018-04-25T05:19:17.901Z,94.20
2018-04-25T05:21:45.703Z,94.10
2018-04-25T05:24:14.143Z,94.70
2018-04-25T05:26:42.383Z,94.70
2018-04-25T05:29:11.626Z,94.50
2018-04-25T05:31:39.061Z,94.50
2018-04-25T05:34:07.283Z,94.70
2018-04-25T05:36:35.477Z,94.50
2018-04-25T05:39:03.226Z,94.50
2018-04-25T05:41:30.659Z,94.10
2018-04-25T05:43:58.099Z,94.00
2018-04-25T05:46:26.417Z,93.50
2018-04-25T05:48:53.857Z,93.50
2018-04-25T05:51:22.306Z,93.70
2018-04-25T05:53:51.265Z,93.30
2018-04-25T05:56:18.702Z,93.30
2018-04-25T05:58:46.130Z,92.90
2018-04-25T06:01:13.640Z,92.60
2018-04-25T06:03:41.097Z,92.10
2018-04-25T06:06:08.542Z,92.20
2018-04-25T06:08:35.974Z,92.40
2018-04-25T06:11:03.413Z,91.70
2018-04-25T06:13:30.912Z,91.50
2018-04-25T06:15:58.346Z,91.50
2018-04-25T06:18:26.093Z,90.80
2018-04-25T06:20:54.280Z,91.30
2018-04-25T06:23:21.729Z,91.30
2018-04-25T06:25:49.183Z,91.10
2018-04-25T06:28:16.701Z,91.40
2018-04-25T06:30:44.106Z,91.00
2018-04-25T06:33:11.595Z,90.80
2018-04-25T06:35:39.025Z,90.50
2018-04-25T06:38:06.903Z,90.30
2018-04-25T06:40:34.476Z,90.50
2018-04-25T06:43:01.904Z,90.20
2018-04-25T06:45:29.382Z,89.80
2018-04-25T06:47:58.621Z,90.20
2018-04-25T06:50:26.080Z,89.40
2018-04-25T06:52:53.550Z,89.40
2018-04-25T06:55:22.736Z,87.50
2018-04-25T06:57:50.170Z,87.50
2018-04-25T07:00:17.658Z,88.20
2018-04-25T07:02:45.934Z,88.20
2018-04-25T07:05:13.363Z,88.20
2018-04-25T07:07:40.859Z,88.30
2018-04-25T07:10:09.078Z,88.00
2018-04-25T07:12:36.522Z,88.00
2018-04-25T07:15:03.979Z,88.20
2018-04-25T07:17:32.680Z,87.70
2018-04-25T07:20:00.099Z,87.80
2018-04-25T07:22:28.288Z,86.80
2018-04-25T07:24:55.801Z,86.80
2018-04-25T07:27:23.334Z,88.00
2018-04-25T07:29:50.786Z,86.60
2018-04-25T07:32:18.219Z,87.20
2018-04-25T07:34:45.656Z,85.70
2018-04-25T07:37:14.101Z,84.50
2018-04-25T07:39:41.588Z,84.50
2018-04-25T07:42:08.986Z,85.50
2018-04-25T07:44:38.494Z,85.40
2018-04-25T07:47:05.926Z,84.80
2018-04-25T07:49:33.388Z,82.60
2018-04-25T07:52:01.678Z,82.10
2018-04-25T07:54:29.094Z,82.00
2018-04-25T07:56:57.293Z,79.60
2018-04-25T07:59:24.786Z,79.70
2018-04-25T08:01:52.253Z,80.30
2018-04-25T08:04:19.815Z,79.20
2018-04-25T08:06:48.322Z,78.30
2018-04-25T08:09:16.642Z,77.70
2018-04-25T08:11:44.063Z,78.20
2018-04-25T08:14:24.231Z,75.80
2018-04-25T08:17:08.897Z,74.90
2018-04-25T08:20:00.894Z,74.90
2018-04-25T08:22:29.136Z,73.10
2018-04-25T08:24:56.567Z,73.00
2018-04-25T08:27:24.388Z,73.80
2018-04-25T08:29:51.913Z,72.50
2018-04-25T08:32:19.343Z,72.80
2018-04-25T08:34:46.810Z,73.80
2018-04-25T08:37:14.287Z,73.20
2018-04-25T08:39:41.721Z,73.90
2018-04-25T08:42:09.155Z,75.70
2018-04-25T08:44:37.413Z,74.50
2018-04-25T08:47:04.820Z,74.50
2018-04-25T08:49:32.263Z,71.90
2018-04-25T08:52:00.466Z,70.80
2018-04-25T08:54:27.907Z,70.70
2018-04-25T08:56:55.614Z,69.40
2018-04-25T08:59:23.038Z,70.60
2018-04-25T09:01:50.927Z,70.30
2018-04-25T09:04:18.345Z,70.20
2018-04-25T09:06:45.941Z,71.10
2018-04-25T09:09:13.363Z,71.90
2018-04-25T09:11:42.093Z,69.30
2018-04-25T09:14:09.523Z,69.30
2018-04-25T09:16:39.691Z,69.00
2018-04-25T09:19:07.110Z,70.50
2018-04-25T09:21:34.544Z,70.50
2018-04-25T09:24:01.988Z,71.50
2018-04-25T09:26:30.212Z,73.90
2018-04-25T09:28:58.502Z,73.70
2018-04-25T09:31:25.943Z,73.70
2018-04-25T09:33:53.426Z,74.30
2018-04-25T09:36:20.850Z,74.70
2018-04-25T09:38:48.297Z,75.90
2018-04-25T09:41:15.794Z,75.20
2018-04-25T09:43:43.226Z,75.20
2018-04-25T09:46:10.666Z,76.30
2018-04-25T09:48:38.135Z,76.70
2018-04-25T09:51:05.594Z,77.80
2018-04-25T09:53:33.031Z,78.00
2018-04-25T09:56:00.506Z,79.30
2018-04-25T09:58:27.937Z,79.90
2018-04-25T10:00:57.175Z,78.60
2018-04-25T10:03:25.453Z,78.50
2018-04-25T10:05:52.874Z,78.20
2018-04-25T10:08:20.379Z,79.00
2018-04-25T10:10:47.865Z,81.50
2018-04-25T10:13:15.227Z,82.50
2018-04-25T10:15:47.025Z,83.90
2018-04-25T10:18:14.471Z,87.10
2018-04-25T10:20:41.906Z,86.50
2018-04-25T10:23:10.114Z,87.30
2018-04-25T10:25:37.615Z,87.30
2018-04-25T10:28:05.754Z,84.70
2018-04-25T10:30:33.185Z,84.60
2018-04-25T10:33:00.646Z,83.70
2018-04-25T10:35:28.095Z,83.10
2018-04-25T10:37:55.538Z,83.20
2018-04-25T10:40:23.787Z,81.80
2018-04-25T10:42:51.169Z,81.80
2018-04-25T10:45:19.396Z,81.00
2018-04-25T10:47:46.828Z,80.90
2018-04-25T10:50:14.264Z,78.90
2018-04-25T10:52:44.883Z,79.30
2018-04-25T10:55:13.207Z,79.90
2018-04-25T10:57:41.296Z,80.00
2018-04-25T11:00:08.741Z,78.60
2018-04-25T11:02:37.122Z,76.60
2018-04-25T11:05:04.546Z,76.50
2018-04-25T11:07:32.067Z,77.60
2018-04-25T11:09:59.481Z,76.40
2018-04-25T11:12:26.923Z,74.10
2018-04-25T11:14:55.111Z,71.20
2018-04-25T11:17:22.593Z,71.10
2018-04-25T11:19:50.025Z,69.60
2018-04-25T11:22:17.511Z,70.40
2018-04-25T11:24:44.945Z,70.10
2018-04-25T11:27:12.375Z,71.70
2018-04-25T11:29:40.638Z,73.00
2018-04-25T11:32:08.138Z,73.00
2018-04-25T11:34:36.574Z,75.10
2018-04-25T11:37:04.029Z,76.20
2018-04-25T11:39:32.268Z,76.80
2018-04-25T11:41:59.681Z,76.80
2018-04-25T11:44:27.193Z,76.50
2018-04-25T11:46:55.634Z,76.30
2018-04-25T11:49:23.137Z,76.90
2018-04-25T11:51:50.586Z,76.40
2018-04-25T11:54:18.021Z,75.20
2018-04-25T11:56:45.444Z,75.00
2018-04-25T11:59:13.712Z,74.50
2018-04-25T12:01:41.142Z,74.50
2018-04-25T12:04:08.606Z,73.60
2018-04-25T12:06:36.030Z,74.60
2018-04-25T12:09:03.464Z,74.20
2018-04-25T12:11:30.958Z,74.90
2018-04-25T12:13:58.397Z,74.40
2018-04-25T12:16:25.857Z,72.60
2018-04-25T12:18:54.128Z,71.60
2018-04-25T12:21:21.610Z,71.40
2018-04-25T12:23:49.794Z,69.70
2018-04-25T12:26:17.430Z,69.70
2018-04-25T12:28:44.872Z,70.00
2018-04-25T12:31:12.298Z,70.50
2018-04-25T12:33:40.619Z,72.20
2018-04-25T12:36:08.026Z,72.20
2018-04-25T12:38:35.490Z,70.80
2018-04-25T12:41:03.914Z,66.60
2018-04-25T12:43:31.374Z,66.50
2018-04-25T12:45:58.952Z,67.10
2018-04-25T12:48:26.373Z,65.60
2018-04-25T12:50:53.816Z,67.40
2018-04-25T12:53:22.134Z,68.80
2018-04-25T12:55:49.578Z,68.80
2018-04-25T12:58:17.517Z,70.20
2018-04-25T13:00:45.002Z,71.00
2018-04-25T13:03:12.537Z,72.20
2018-04-25T13:05:43.178Z,71.80
2018-04-25T13:08:11.385Z,69.80
2018-04-25T13:10:40.299Z,69.80
2018-04-25T13:13:07.853Z,69.10
2018-04-25T13:15:36.819Z,73.80
2018-04-25T13:18:04.244Z,73.80
2018-04-25T13:20:32.549Z,74.10
2018-04-25T13:23:00.122Z,74.10
2018-04-25T13:25:27.567Z,75.30
2018-04-25T13:27:54.995Z,73.30
2018-04-25T13:30:23.199Z,69.50
2018-04-25T13:32:51.615Z,69.50
2018-04-25T13:35:20.553Z,68.70
2018-04-25T13:37:48.063Z,68.70
2018-04-25T13:40:16.213Z,66.40
2018-04-25T13:42:43.666Z,66.40
2018-04-25T13:45:11.094Z,67.30
2018-04-25T13:47:39.622Z,66.20
2018-04-25T13:50:07.086Z,66.20
2018-04-25T13:52:34.695Z,65.80
2018-04-25T13:55:02.105Z,66.10
2018-04-25T13:57:29.517Z,65.40
2018-04-25T13:59:56.994Z,65.30
2018-04-25T14:02:24.657Z,68.40
2018-04-25T14:04:52.111Z,68.50
2018-04-25T14:07:19.553Z,66.10
2018-04-25T14:09:47.092Z,68.10
2018-04-25T14:12:15.311Z,65.60
2018-04-25T14:14:42.771Z,65.60
2018-04-25T14:17:10.264Z,65.30
2018-04-25T14:19:39.202Z,64.20
2018-04-25T14:22:06.834Z,64.10
2018-04-25T14:24:35.048Z,63.90
2018-04-25T14:27:02.521Z,64.20
2018-04-25T14:29:29.965Z,62.80
2018-04-25T14:31:57.530Z,63.70
2018-04-25T14:34:25.299Z,62.70
2018-04-25T14:36:52.758Z,63.10
2018-04-25T14:39:20.181Z,62.80
2018-04-25T14:41:47.929Z,63.20
2018-04-25T14:44:16.115Z,63.30
2018-04-25T14:46:43.557Z,62.80
2018-04-25T14:49:10.984Z,63.20
2018-04-25T14:51:38.425Z,63.80
2018-04-25T14:54:06.831Z,62.80
2018-04-25T14:56:34.354Z,63.90
2018-04-25T14:59:01.838Z,63.30
2018-04-25T15:01:29.349Z,64.00
2018-04-25T15:03:56.828Z,64.30
2018-04-25T15:06:24.271Z,64.00
2018-04-25T15:08:51.836Z,66.30
2018-04-25T15:11:19.250Z,61.60
2018-04-25T15:13:46.712Z,63.60
2018-04-25T15:16:14.226Z,65.00
2018-04-25T15:18:41.658Z,62.40
2018-04-25T15:21:09.121Z,62.30
2018-04-25T15:23:36.548Z,63.60
2018-04-25T15:26:05.362Z,62.80
2018-04-25T15:28:33.082Z,62.70
2018-04-25T15:31:01.430Z,64.20
2018-04-25T15:33:28.853Z,63.80
2018-04-25T15:35:56.416Z,63.00
2018-04-25T15:38:23.971Z,65.80
2018-04-25T15:40:51.497Z,65.30
2018-04-25T15:43:18.938Z,63.40
2018-04-25T15:45:46.370Z,64.10
2018-04-25T15:48:14.426Z,66.20
2018-04-25T15:50:42.025Z,65.20
2018-04-25T15:53:09.554Z,65.40
2018-04-25T15:55:37.348Z,66.30
2018-04-25T15:58:04.921Z,67.60
2018-04-25T16:00:32.375Z,66.20
2018-04-25T16:02:59.831Z,67.60
2018-04-25T16:05:28.215Z,66.60
2018-04-25T16:07:56.474Z,65.50
2018-04-25T16:10:23.934Z,65.90
2018-04-25T16:12:51.550Z,69.10
2018-04-25T16:15:19.734Z,69.90
2018-04-25T16:17:47.466Z,69.80
2018-04-25T16:20:14.908Z,69.90
2018-04-25T16:22:42.474Z,68.20
2018-04-25T16:25:14.749Z,66.80
2018-04-25T16:27:42.223Z,66.60
2018-04-25T16:30:10.419Z,68.70
2018-04-25T16:32:37.849Z,68.70
2018-04-25T16:35:06.086Z,68.00
2018-04-25T16:37:33.708Z,67.90
2018-04-25T16:40:01.196Z,67.00
2018-04-25T16:42:28.892Z,66.90
2018-04-25T16:44:56.319Z,69.50
2018-04-25T16:47:23.750Z,69.50
2018-04-25T16:49:51.516Z,67.90
2018-04-25T16:52:19.023Z,68.70
2018-04-25T16:54:46.478Z,69.40
2018-04-25T16:57:13.957Z,69.30
2018-04-25T16:59:41.467Z,69.40
2018-04-25T17:02:09.238Z,69.40
2018-04-25T17:04:36.682Z,68.70
2018-04-25T17:07:04.114Z,69.00
2018-04-25T17:09:32.335Z,69.40
2018-04-25T17:11:59.777Z,69.40
2018-04-25T17:14:27.218Z,70.10
2018-04-25T17:16:54.729Z,71.10
2018-04-25T17:22:07.229Z,70.70
2018-04-25T17:24:34.659Z,70.10
2018-04-25T17:27:02.091Z,71.80
2018-04-25T17:29:30.689Z,73.00
2018-04-25T17:31:59.153Z,73.30
2018-04-25T17:34:26.590Z,73.20
2018-04-25T17:36:54.278Z,74.20
2018-04-25T17:39:21.878Z,74.80
2018-04-25T17:41:49.363Z,75.00
2018-04-25T17:44:17.652Z,73.80
2018-04-25T17:46:45.875Z,75.10
2018-04-25T17:49:13.370Z,75.10
2018-04-25T17:51:40.817Z,75.50
2018-04-25T17:54:08.242Z,78.00
2018-04-25T17:56:35.675Z,78.20
2018-04-25T17:59:03.117Z,77.80
2018-04-25T18:01:30.559Z,78.90
2018-04-25T18:03:58.299Z,79.60
2018-04-25T18:06:25.713Z,78.70
2018-04-25T18:08:53.905Z,77.30
2018-04-25T18:11:22.128Z,78.90
2018-04-25T18:13:49.544Z,78.10
2018-04-25T18:16:17.156Z,78.50
2018-04-25T18:18:45.372Z,78.40
2018-04-25T18:21:13.578Z,78.90
2018-04-25T18:23:41.047Z,79.60
2018-04-25T18:26:12.481Z,79.20
2018-04-25T18:28:39.992Z,79.00
2018-04-25T18:31:08.253Z,78.50
2018-04-25T18:33:35.718Z,78.40
2018-04-25T18:36:04.649Z,80.00
2018-04-25T18:38:32.142Z,79.10
2018-04-25T18:40:59.605Z,79.20
2018-04-25T18:43:27.022Z,79.50
2018-04-25T18:45:54.519Z,81.10
2018-04-25T18:48:22.370Z,80.90
2018-04-25T18:50:49.829Z,82.30
2018-04-25T18:53:17.258Z,82.60
2018-04-25T18:55:44.714Z,83.50
2018-04-25T18:58:12.190Z,84.50
2018-04-25T19:00:39.797Z,86.70
2018-04-25T19:03:07.249Z,88.00
2018-04-25T19:05:34.647Z,88.10
2018-04-25T19:08:02.238Z,86.80
2018-04-25T19:10:30.590Z,87.60
2018-04-25T19:12:58.894Z,89.90
2018-04-25T19:15:27.551Z,89.80
2018-04-25T19:17:55.795Z,89.90
2018-04-25T19:20:23.226Z,88.20
2018-04-25T19:22:50.769Z,88.60
2018-04-25T19:25:20.330Z,89.80
2018-04-25T19:27:48.545Z,89.40
2018-04-25T19:30:15.982Z,89.30
2018-04-25T19:32:43.822Z,90.30
2018-04-25T19:35:12.022Z,90.60
2018-04-25T19:37:41.956Z,90.40
2018-04-25T19:40:09.472Z,90.40
2018-04-25T19:42:37.659Z,90.50
2018-04-25T19:45:05.850Z,90.30
2018-04-25T19:47:33.328Z,90.20
2018-04-25T19:50:02.327Z,90.50
2018-04-25T19:52:30.003Z,90.50
2018-04-25T19:54:57.662Z,90.40
2018-04-25T19:57:25.127Z,90.30
2018-04-25T19:59:52.552Z,90.20
2018-04-25T20:02:19.988Z,90.30
2018-04-25T20:04:48.169Z,90.70
2018-04-25T20:07:15.656Z,90.70
2018-04-25T20:09:43.568Z,90.80
2018-04-25T20:12:10.984Z,90.80
2018-04-25T20:14:38.408Z,90.50
2018-04-25T20:17:06.992Z,90.80
2018-04-25T20:19:34.434Z,91.30
2018-04-25T20:22:02.785Z,91.70
2018-04-25T20:24:30.246Z,91.70
2018-04-25T20:26:57.683Z,91.40
2018-04-25T20:29:25.109Z,91.20
2018-04-25T20:31:52.787Z,91.00
2018-04-25T20:34:20.218Z,91.20
2018-04-25T20:36:47.717Z,91.30
2018-04-25T20:39:15.150Z,91.30
2018-04-25T20:41:43.596Z,91.30
2018-04-25T20:44:11.790Z,90.80
2018-04-25T20:46:39.244Z,90.80
2018-04-25T20:49:06.689Z,90.60
2018-04-25T20:51:34.933Z,90.30
2018-04-25T20:54:03.964Z,90.90
2018-04-25T20:56:32.168Z,90.50
2018-04-25T20:58:59.629Z,90.50
2018-04-25T21:01:27.086Z,90.90
2018-04-25T21:03:55.367Z,90.80
2018-04-25T21:06:22.859Z,90.70
2018-04-25T21:08:50.483Z,90.80
2018-04-25T21:11:17.913Z,91.00
2018-04-25T21:13:45.595Z,91.00
2018-04-25T21:16:13.064Z,90.90
2018-04-25T21:18:40.512Z,91.20
2018-04-25T21:21:09.100Z,91.40
2018-04-25T21:23:36.513Z,91.50
2018-04-25T21:26:04.742Z,92.00
2018-04-25T21:28:32.198Z,91.60
2018-04-25T21:30:59.650Z,91.50
2018-04-25T21:33:27.849Z,91.20
2018-04-25T21:35:55.306Z,91.20
2018-04-25T21:38:22.723Z,91.20
2018-04-25T21:40:50.146Z,91.60
2018-04-25T21:43:18.348Z,91.50
2018-04-25T21:45:46.051Z,91.50
2018-04-25T21:48:13.484Z,91.20
2018-04-25T21:50:41.966Z,91.60
2018-04-25T21:53:09.412Z,91.60
2018-04-25T21:55:36.838Z,91.50
2018-04-25T21:58:05.080Z,91.70
2018-04-25T22:00:32.479Z,91.60
2018-04-25T22:03:00.690Z,91.60
2018-04-25T22:05:28.366Z,91.60
2018-04-25T22:07:55.801Z,91.80
2018-04-25T22:10:23.276Z,91.80
2018-04-25T22:12:50.717Z,92.00
2018-04-25T22:15:18.190Z,92.10
2018-04-25T22:17:45.631Z,92.10
2018-04-25T22:20:13.062Z,92.20
2018-04-25T22:22:41.250Z,92.20
2018-04-25T22:25:08.744Z,92.20
2018-04-25T22:27:36.165Z,92.10
2018-04-25T22:30:03.665Z,92.10
2018-04-25T22:32:31.202Z,92.50
2018-04-25T22:34:59.619Z,92.30
2018-04-25T22:37:27.979Z,92.30
2018-04-25T22:39:55.427Z,92.30
2018-04-25T22:42:22.854Z,92.70
2018-04-25T22:44:51.051Z,92.90
2018-04-25T22:47:18.465Z,92.90
2018-04-25T22:49:46.749Z,92.60
2018-04-25T22:52:14.122Z,92.60
2018-04-25T22:54:41.551Z,92.80
2018-04-25T22:57:10.006Z,92.90
2018-04-25T22:59:38.934Z,92.90
2018-04-25T23:02:06.402Z,92.90
2018-04-25T23:04:33.858Z,93.10
2018-04-25T23:07:01.289Z,93.10
2018-04-25T23:09:29.482Z,93.20
2018-04-25T23:11:57.887Z,93.20
2018-04-25T23:14:25.322Z,93.20
2018-04-25T23:16:52.750Z,93.20
2018-04-25T23:19:20.189Z,93.30
2018-04-25T23:21:50.583Z,93.10
2018-04-25T23:24:18.018Z,93.20
2018-04-25T23:26:45.593Z,93.40
2018-04-25T23:29:13.010Z,93.40
2018-04-25T23:31:41.235Z,93.60
2018-04-25T23:34:08.671Z,93.30
2018-04-25T23:36:36.096Z,93.40
2018-04-25T23:39:03.746Z,93.40
2018-04-25T23:41:31.170Z,93.40
2018-04-25T23:43:58.611Z,93.30
2018-04-25T23:46:26.190Z,93.40
2018-04-25T23:48:53.615Z,93.30
2018-04-25T23:51:21.039Z,93.30
2018-04-25T23:53:49.249Z,93.50
2018-04-25T23:56:16.725Z,93.50
2018-04-25T23:58:44.158Z,93.40
